sensor_id;sensor_type;location;lat;lon;timestamp;P1;durP1;ratioP1;P2;durP2;ratioP2
16770;SDS011;8503;52.472;13.344;2023-02-01T00:00:47;9.57;;;1.98;;
16770;SDS011;8503;52.472;13.344;2023-02-01T00:02:09;15.85;;;2.53;;
16770;SDS011;8503;52.472;13.344;2023-02-01T00:03:33;13.98;;;2.97;;
16770;SDS011;8503;52.472;13.344;2023-02-01T00:04:56;11.85;;;2.40;;
16770;SDS011;8503;52.472;13.344;2023-02-01T00:06:19;12.75;;;3.03;;
16770;SDS011;8503;52.472;13.344;2023-02-01T00:07:42;18.98;;;2.95;;
16770;SDS011;8503;52.472;13.344;2023-02-01T00:09:08;8.00;;;2.17;;
16770;SDS011;8503;52.472;13.344;2023-02-01T00:10:31;15.98;;;2.15;;
16770;SDS011;8503;52.472;13.344;2023-02-01T00:11:54;11.38;;;1.85;;
16770;SDS011;8503;52.472;13.344;2023-02-01T00:13:21;13.63;;;2.38;;
16770;SDS011;8503;52.472;13.344;2023-02-01T00:14:45;18.02;;;2.83;;
16770;SDS011;8503;52.472;13.344;2023-02-01T00:16:10;11.52;;;2.10;;
16770;SDS011;8503;52.472;13.344;2023-02-01T00:17:33;8.18;;;2.63;;
16770;SDS011;8503;52.472;13.344;2023-02-01T00:18:58;12.27;;;2.33;;
16770;SDS011;8503;52.472;13.344;2023-02-01T00:20:23;16.40;;;1.83;;
16770;SDS011;8503;52.472;13.344;2023-02-01T00:21:46;17.42;;;2.60;;
16770;SDS011;8503;52.472;13.344;2023-02-01T00:23:10;12.95;;;1.75;;
16770;SDS011;8503;52.472;13.344;2023-02-01T00:24:32;10.63;;;1.90;;
16770;SDS011;8503;52.472;13.344;2023-02-01T00:25:56;15.63;;;2.67;;
16770;SDS011;8503;52.472;13.344;2023-02-01T00:27:21;9.60;;;2.05;;
16770;SDS011;8503;52.472;13.344;2023-02-01T00:28:46;12.95;;;2.80;;
16770;SDS011;8503;52.472;13.344;2023-02-01T00:30:10;17.13;;;2.85;;
16770;SDS011;8503;52.472;13.344;2023-02-01T00:31:33;15.32;;;2.15;;
16770;SDS011;8503;52.472;13.344;2023-02-01T00:32:57;11.30;;;2.20;;
16770;SDS011;8503;52.472;13.344;2023-02-01T00:34:20;10.43;;;2.47;;
16770;SDS011;8503;52.472;13.344;2023-02-01T00:35:44;10.60;;;2.80;;
16770;SDS011;8503;52.472;13.344;2023-02-01T00:37:06;15.52;;;2.58;;
16770;SDS011;8503;52.472;13.344;2023-02-01T00:38:30;15.70;;;2.47;;
16770;SDS011;8503;52.472;13.344;2023-02-01T00:39:53;10.02;;;1.75;;
16770;SDS011;8503;52.472;13.344;2023-02-01T00:41:17;11.50;;;2.10;;
16770;SDS011;8503;52.472;13.344;2023-02-01T00:42:41;7.80;;;2.10;;
16770;SDS011;8503;52.472;13.344;2023-02-01T00:44:06;14.82;;;2.35;;
16770;SDS011;8503;52.472;13.344;2023-02-01T00:45:28;12.13;;;2.35;;
16770;SDS011;8503;52.472;13.344;2023-02-01T00:46:52;8.35;;;1.85;;
16770;SDS011;8503;52.472;13.344;2023-02-01T00:48:15;8.18;;;2.13;;
16770;SDS011;8503;52.472;13.344;2023-02-01T00:49:38;7.82;;;2.50;;
16770;SDS011;8503;52.472;13.344;2023-02-01T00:51:02;11.90;;;2.10;;
16770;SDS011;8503;52.472;13.344;2023-02-01T00:52:25;14.35;;;1.80;;
16770;SDS011;8503;52.472;13.344;2023-02-01T00:53:49;6.10;;;1.38;;
16770;SDS011;8503;52.472;13.344;2023-02-01T00:55:11;10.38;;;1.50;;
16770;SDS011;8503;52.472;13.344;2023-02-01T00:56:35;9.15;;;1.58;;
16770;SDS011;8503;52.472;13.344;2023-02-01T00:57:59;14.30;;;1.80;;
16770;SDS011;8503;52.472;13.344;2023-02-01T00:59:23;12.38;;;2.17;;
16770;SDS011;8503;52.472;13.344;2023-02-01T01:00:47;10.45;;;1.98;;
16770;SDS011;8503;52.472;13.344;2023-02-01T01:02:10;17.38;;;2.03;;
16770;SDS011;8503;52.472;13.344;2023-02-01T01:03:36;5.70;;;1.90;;
16770;SDS011;8503;52.472;13.344;2023-02-01T01:05:00;11.63;;;1.88;;
16770;SDS011;8503;52.472;13.344;2023-02-01T01:06:24;14.30;;;1.52;;
16770;SDS011;8503;52.472;13.344;2023-02-01T01:07:49;14.07;;;2.40;;
16770;SDS011;8503;52.472;13.344;2023-02-01T01:09:12;9.43;;;2.13;;
16770;SDS011;8503;52.472;13.344;2023-02-01T01:10:35;9.68;;;1.92;;
16770;SDS011;8503;52.472;13.344;2023-02-01T01:11:57;9.98;;;1.30;;
16770;SDS011;8503;52.472;13.344;2023-02-01T01:13:23;12.73;;;2.15;;
16770;SDS011;8503;52.472;13.344;2023-02-01T01:14:48;14.93;;;2.25;;
16770;SDS011;8503;52.472;13.344;2023-02-01T01:16:11;5.78;;;1.52;;
16770;SDS011;8503;52.472;13.344;2023-02-01T01:17:35;16.65;;;1.75;;
16770;SDS011;8503;52.472;13.344;2023-02-01T01:18:57;8.90;;;2.20;;
16770;SDS011;8503;52.472;13.344;2023-02-01T01:20:22;7.85;;;1.65;;
16770;SDS011;8503;52.472;13.344;2023-02-01T01:21:44;12.13;;;2.30;;
16770;SDS011;8503;52.472;13.344;2023-02-01T01:23:08;9.60;;;1.95;;
16770;SDS011;8503;52.472;13.344;2023-02-01T01:24:30;12.02;;;2.42;;
16770;SDS011;8503;52.472;13.344;2023-02-01T01:25:54;11.65;;;3.10;;
16770;SDS011;8503;52.472;13.344;2023-02-01T01:27:16;8.70;;;2.08;;
16770;SDS011;8503;52.472;13.344;2023-02-01T01:28:44;9.98;;;2.80;;
16770;SDS011;8503;52.472;13.344;2023-02-01T01:30:09;11.95;;;2.03;;
16770;SDS011;8503;52.472;13.344;2023-02-01T01:31:34;10.00;;;2.33;;
16770;SDS011;8503;52.472;13.344;2023-02-01T01:32:57;5.18;;;1.30;;
16770;SDS011;8503;52.472;13.344;2023-02-01T01:34:20;7.88;;;1.77;;
16770;SDS011;8503;52.472;13.344;2023-02-01T01:35:43;12.30;;;2.25;;
16770;SDS011;8503;52.472;13.344;2023-02-01T01:37:06;14.77;;;2.97;;
16770;SDS011;8503;52.472;13.344;2023-02-01T01:38:30;10.07;;;2.33;;
16770;SDS011;8503;52.472;13.344;2023-02-01T01:39:52;20.02;;;1.60;;
16770;SDS011;8503;52.472;13.344;2023-02-01T01:41:17;9.55;;;1.95;;
16770;SDS011;8503;52.472;13.344;2023-02-01T01:42:42;9.30;;;1.98;;
16770;SDS011;8503;52.472;13.344;2023-02-01T01:44:06;10.27;;;1.73;;
16770;SDS011;8503;52.472;13.344;2023-02-01T01:45:46;7.10;;;1.73;;
16770;SDS011;8503;52.472;13.344;2023-02-01T01:47:09;7.55;;;2.00;;
16770;SDS011;8503;52.472;13.344;2023-02-01T01:48:33;13.55;;;1.90;;
16770;SDS011;8503;52.472;13.344;2023-02-01T01:49:55;13.77;;;2.47;;
16770;SDS011;8503;52.472;13.344;2023-02-01T01:51:19;8.35;;;1.55;;
16770;SDS011;8503;52.472;13.344;2023-02-01T01:52:44;9.55;;;1.98;;
16770;SDS011;8503;52.472;13.344;2023-02-01T01:54:11;9.15;;;2.17;;
16770;SDS011;8503;52.472;13.344;2023-02-01T01:55:39;12.23;;;2.10;;
16770;SDS011;8503;52.472;13.344;2023-02-01T01:57:05;4.72;;;1.42;;
16770;SDS011;8503;52.472;13.344;2023-02-01T01:58:30;12.65;;;1.92;;
16770;SDS011;8503;52.472;13.344;2023-02-01T01:59:56;8.25;;;1.60;;
16770;SDS011;8503;52.472;13.344;2023-02-01T02:01:23;10.52;;;2.35;;
16770;SDS011;8503;52.472;13.344;2023-02-01T02:02:47;6.82;;;2.10;;
16770;SDS011;8503;52.472;13.344;2023-02-01T05:41:34;6.68;;;2.08;;
16770;SDS011;8503;52.472;13.344;2023-02-01T05:42:58;10.90;;;2.28;;
16770;SDS011;8503;52.472;13.344;2023-02-01T05:44:22;10.70;;;2.72;;
16770;SDS011;8503;52.472;13.344;2023-02-01T05:45:45;9.60;;;1.92;;
16770;SDS011;8503;52.472;13.344;2023-02-01T05:47:09;17.83;;;2.50;;
16770;SDS011;8503;52.472;13.344;2023-02-01T05:48:33;18.33;;;2.53;;
16770;SDS011;8503;52.472;13.344;2023-02-01T05:49:57;11.27;;;2.10;;
16770;SDS011;8503;52.472;13.344;2023-02-01T05:51:20;8.00;;;1.80;;
16770;SDS011;8503;52.472;13.344;2023-02-01T05:52:44;19.17;;;3.20;;
16770;SDS011;8503;52.472;13.344;2023-02-01T05:54:08;22.70;;;3.35;;
16770;SDS011;8503;52.472;13.344;2023-02-01T05:55:32;12.15;;;2.35;;
16770;SDS011;8503;52.472;13.344;2023-02-01T05:56:57;14.40;;;2.25;;
16770;SDS011;8503;52.472;13.344;2023-02-01T05:58:20;14.75;;;2.70;;
16770;SDS011;8503;52.472;13.344;2023-02-01T05:59:43;19.23;;;2.47;;
16770;SDS011;8503;52.472;13.344;2023-02-01T06:01:08;17.58;;;2.83;;
16770;SDS011;8503;52.472;13.344;2023-02-01T06:02:32;9.20;;;3.13;;
16770;SDS011;8503;52.472;13.344;2023-02-01T06:03:56;9.98;;;2.63;;
16770;SDS011;8503;52.472;13.344;2023-02-01T06:05:18;25.50;;;2.60;;
16770;SDS011;8503;52.472;13.344;2023-02-01T06:06:42;10.52;;;2.50;;
16770;SDS011;8503;52.472;13.344;2023-02-01T06:08:05;11.50;;;1.98;;
16770;SDS011;8503;52.472;13.344;2023-02-01T06:09:30;17.52;;;3.10;;
16770;SDS011;8503;52.472;13.344;2023-02-01T06:10:57;16.23;;;2.60;;
16770;SDS011;8503;52.472;13.344;2023-02-01T06:12:21;14.30;;;2.50;;
16770;SDS011;8503;52.472;13.344;2023-02-01T06:13:44;12.90;;;3.03;;
16770;SDS011;8503;52.472;13.344;2023-02-01T06:15:08;11.63;;;2.33;;
16770;SDS011;8503;52.472;13.344;2023-02-01T06:16:31;28.63;;;2.78;;
16770;SDS011;8503;52.472;13.344;2023-02-01T06:17:55;12.27;;;2.05;;
16770;SDS011;8503;52.472;13.344;2023-02-01T06:19:17;10.70;;;1.80;;
16770;SDS011;8503;52.472;13.344;2023-02-01T06:20:41;18.40;;;2.55;;
16770;SDS011;8503;52.472;13.344;2023-02-01T06:22:05;13.75;;;2.25;;
16770;SDS011;8503;52.472;13.344;2023-02-01T06:23:29;12.50;;;2.03;;
16770;SDS011;8503;52.472;13.344;2023-02-01T06:24:52;13.40;;;2.00;;
16770;SDS011;8503;52.472;13.344;2023-02-01T06:26:16;6.70;;;1.83;;
16770;SDS011;8503;52.472;13.344;2023-02-01T06:27:41;10.23;;;2.88;;
16770;SDS011;8503;52.472;13.344;2023-02-01T06:29:05;10.55;;;2.70;;
16770;SDS011;8503;52.472;13.344;2023-02-01T06:30:29;13.02;;;2.92;;
16770;SDS011;8503;52.472;13.344;2023-02-01T06:31:52;10.40;;;2.33;;
16770;SDS011;8503;52.472;13.344;2023-02-01T06:33:15;13.75;;;2.47;;
16770;SDS011;8503;52.472;13.344;2023-02-01T06:34:39;14.45;;;2.97;;
16770;SDS011;8503;52.472;13.344;2023-02-01T06:36:03;13.23;;;2.38;;
16770;SDS011;8503;52.472;13.344;2023-02-01T06:37:29;12.40;;;2.55;;
16770;SDS011;8503;52.472;13.344;2023-02-01T06:38:53;11.55;;;2.83;;
16770;SDS011;8503;52.472;13.344;2023-02-01T06:40:17;19.63;;;2.22;;
16770;SDS011;8503;52.472;13.344;2023-02-01T06:41:41;10.15;;;1.98;;
16770;SDS011;8503;52.472;13.344;2023-02-01T06:43:06;17.50;;;2.97;;
16770;SDS011;8503;52.472;13.344;2023-02-01T06:44:31;12.13;;;2.38;;
16770;SDS011;8503;52.472;13.344;2023-02-01T06:45:58;14.77;;;2.08;;
16770;SDS011;8503;52.472;13.344;2023-02-01T06:47:22;12.70;;;2.45;;
16770;SDS011;8503;52.472;13.344;2023-02-01T06:48:46;21.77;;;2.88;;
16770;SDS011;8503;52.472;13.344;2023-02-01T06:50:10;12.20;;;2.30;;
16770;SDS011;8503;52.472;13.344;2023-02-01T06:51:34;10.13;;;2.63;;
16770;SDS011;8503;52.472;13.344;2023-02-01T06:52:57;14.07;;;2.58;;
16770;SDS011;8503;52.472;13.344;2023-02-01T06:54:21;8.55;;;2.05;;
16770;SDS011;8503;52.472;13.344;2023-02-01T06:55:50;6.55;;;1.98;;
16770;SDS011;8503;52.472;13.344;2023-02-01T06:57:15;10.98;;;2.88;;
16770;SDS011;8503;52.472;13.344;2023-02-01T06:58:40;11.63;;;2.13;;
16770;SDS011;8503;52.472;13.344;2023-02-01T07:00:03;13.80;;;1.73;;
16770;SDS011;8503;52.472;13.344;2023-02-01T07:01:28;10.23;;;2.58;;
16770;SDS011;8503;52.472;13.344;2023-02-01T07:02:51;10.55;;;1.63;;
16770;SDS011;8503;52.472;13.344;2023-02-01T07:04:15;10.38;;;2.25;;
16770;SDS011;8503;52.472;13.344;2023-02-01T07:05:38;14.25;;;3.15;;
16770;SDS011;8503;52.472;13.344;2023-02-01T07:07:02;14.55;;;3.20;;
16770;SDS011;8503;52.472;13.344;2023-02-01T07:08:26;9.57;;;2.15;;
16770;SDS011;8503;52.472;13.344;2023-02-01T07:09:50;17.95;;;2.90;;
16770;SDS011;8503;52.472;13.344;2023-02-01T07:11:16;9.50;;;2.70;;
16770;SDS011;8503;52.472;13.344;2023-02-01T07:12:40;10.52;;;2.35;;
16770;SDS011;8503;52.472;13.344;2023-02-01T07:14:05;16.80;;;2.90;;
16770;SDS011;8503;52.472;13.344;2023-02-01T07:15:28;13.98;;;1.98;;
16770;SDS011;8503;52.472;13.344;2023-02-01T07:16:51;14.10;;;2.25;;
16770;SDS011;8503;52.472;13.344;2023-02-01T07:18:15;9.93;;;2.03;;
16770;SDS011;8503;52.472;13.344;2023-02-01T07:19:38;14.68;;;2.22;;
16770;SDS011;8503;52.472;13.344;2023-02-01T07:21:02;7.90;;;1.63;;
16770;SDS011;8503;52.472;13.344;2023-02-01T07:22:26;11.20;;;2.50;;
16770;SDS011;8503;52.472;13.344;2023-02-01T07:23:50;15.25;;;3.10;;
16770;SDS011;8503;52.472;13.344;2023-02-01T07:25:13;9.10;;;2.63;;
16770;SDS011;8503;52.472;13.344;2023-02-01T07:26:37;8.52;;;1.95;;
16770;SDS011;8503;52.472;13.344;2023-02-01T07:28:01;17.88;;;2.78;;
16770;SDS011;8503;52.472;13.344;2023-02-01T07:29:25;15.65;;;3.03;;
16770;SDS011;8503;52.472;13.344;2023-02-01T07:30:49;10.77;;;2.30;;
16770;SDS011;8503;52.472;13.344;2023-02-01T07:32:13;10.45;;;2.03;;
16770;SDS011;8503;52.472;13.344;2023-02-01T07:33:39;14.23;;;2.50;;
16770;SDS011;8503;52.472;13.344;2023-02-01T07:35:02;19.30;;;2.60;;
16770;SDS011;8503;52.472;13.344;2023-02-01T07:36:26;14.55;;;2.60;;
16770;SDS011;8503;52.472;13.344;2023-02-01T07:37:50;12.95;;;2.58;;
16770;SDS011;8503;52.472;13.344;2023-02-01T07:39:13;9.05;;;1.60;;
16770;SDS011;8503;52.472;13.344;2023-02-01T07:40:37;14.27;;;2.47;;
16770;SDS011;8503;52.472;13.344;2023-02-01T07:42:00;9.13;;;2.28;;
16770;SDS011;8503;52.472;13.344;2023-02-01T07:43:24;10.98;;;2.33;;
16770;SDS011;8503;52.472;13.344;2023-02-01T07:44:49;12.43;;;2.08;;
16770;SDS011;8503;52.472;13.344;2023-02-01T07:46:15;8.55;;;2.00;;
16770;SDS011;8503;52.472;13.344;2023-02-01T07:47:39;17.35;;;2.38;;
16770;SDS011;8503;52.472;13.344;2023-02-01T07:49:02;16.73;;;2.35;;
16770;SDS011;8503;52.472;13.344;2023-02-01T07:50:26;15.00;;;2.70;;
16770;SDS011;8503;52.472;13.344;2023-02-01T07:51:49;7.10;;;2.35;;
16770;SDS011;8503;52.472;13.344;2023-02-01T07:53:13;6.47;;;1.70;;
16770;SDS011;8503;52.472;13.344;2023-02-01T07:54:36;11.52;;;2.15;;
16770;SDS011;8503;52.472;13.344;2023-02-01T07:56:00;7.53;;;1.73;;
16770;SDS011;8503;52.472;13.344;2023-02-01T07:57:24;12.10;;;2.03;;
16770;SDS011;8503;52.472;13.344;2023-02-01T07:58:48;6.90;;;1.80;;
16770;SDS011;8503;52.472;13.344;2023-02-01T08:00:14;9.05;;;2.60;;
16770;SDS011;8503;52.472;13.344;2023-02-01T08:01:55;11.55;;;1.92;;
16770;SDS011;8503;52.472;13.344;2023-02-01T08:03:18;10.20;;;2.22;;
16770;SDS011;8503;52.472;13.344;2023-02-01T08:04:42;10.68;;;2.22;;
16770;SDS011;8503;52.472;13.344;2023-02-01T08:06:05;21.35;;;2.90;;
16770;SDS011;8503;52.472;13.344;2023-02-01T08:07:29;9.30;;;2.10;;
16770;SDS011;8503;52.472;13.344;2023-02-01T08:08:53;7.55;;;1.63;;
16770;SDS011;8503;52.472;13.344;2023-02-01T08:10:17;8.18;;;1.77;;
16770;SDS011;8503;52.472;13.344;2023-02-01T08:11:41;8.88;;;2.08;;
16770;SDS011;8503;52.472;13.344;2023-02-01T08:13:05;10.10;;;2.05;;
16770;SDS011;8503;52.472;13.344;2023-02-01T08:14:29;13.05;;;2.40;;
16770;SDS011;8503;52.472;13.344;2023-02-01T08:15:58;14.13;;;2.65;;
16770;SDS011;8503;52.472;13.344;2023-02-01T08:17:22;10.48;;;2.60;;
16770;SDS011;8503;52.472;13.344;2023-02-01T08:18:45;11.13;;;2.33;;
16770;SDS011;8503;52.472;13.344;2023-02-01T08:20:09;4.60;;;1.55;;
16770;SDS011;8503;52.472;13.344;2023-02-01T08:21:34;10.50;;;2.55;;
16770;SDS011;8503;52.472;13.344;2023-02-01T08:23:01;13.90;;;2.05;;
16770;SDS011;8503;52.472;13.344;2023-02-01T08:24:25;5.15;;;1.35;;
16770;SDS011;8503;52.472;13.344;2023-02-01T08:25:48;8.60;;;1.65;;
16770;SDS011;8503;52.472;13.344;2023-02-01T08:27:12;4.50;;;1.77;;
16770;SDS011;8503;52.472;13.344;2023-02-01T08:28:36;8.65;;;2.00;;
16770;SDS011;8503;52.472;13.344;2023-02-01T08:29:59;8.32;;;2.05;;
16770;SDS011;8503;52.472;13.344;2023-02-01T08:31:25;8.15;;;1.70;;
16770;SDS011;8503;52.472;13.344;2023-02-01T08:32:50;7.18;;;1.70;;
16770;SDS011;8503;52.472;13.344;2023-02-01T08:34:13;13.10;;;2.35;;
16770;SDS011;8503;52.472;13.344;2023-02-01T08:35:37;7.63;;;1.98;;
16770;SDS011;8503;52.472;13.344;2023-02-01T08:37:04;8.90;;;2.10;;
16770;SDS011;8503;52.472;13.344;2023-02-01T08:38:28;13.27;;;2.28;;
16770;SDS011;8503;52.472;13.344;2023-02-01T08:39:52;7.88;;;1.98;;
16770;SDS011;8503;52.472;13.344;2023-02-01T08:41:16;11.35;;;2.13;;
16770;SDS011;8503;52.472;13.344;2023-02-01T08:42:41;5.50;;;1.98;;
16770;SDS011;8503;52.472;13.344;2023-02-01T08:44:13;7.20;;;2.20;;
16770;SDS011;8503;52.472;13.344;2023-02-01T08:45:36;10.50;;;2.15;;
16770;SDS011;8503;52.472;13.344;2023-02-01T08:47:02;12.35;;;2.38;;
16770;SDS011;8503;52.472;13.344;2023-02-01T08:48:26;5.85;;;2.08;;
16770;SDS011;8503;52.472;13.344;2023-02-01T08:49:50;6.25;;;1.75;;
16770;SDS011;8503;52.472;13.344;2023-02-01T08:51:16;11.70;;;2.22;;
16770;SDS011;8503;52.472;13.344;2023-02-01T08:52:40;2.72;;;1.40;;
16770;SDS011;8503;52.472;13.344;2023-02-01T08:54:04;8.98;;;2.53;;
16770;SDS011;8503;52.472;13.344;2023-02-01T08:55:27;10.13;;;2.05;;
16770;SDS011;8503;52.472;13.344;2023-02-01T08:56:50;9.13;;;1.33;;
16770;SDS011;8503;52.472;13.344;2023-02-01T08:58:15;6.30;;;1.83;;
16770;SDS011;8503;52.472;13.344;2023-02-01T08:59:39;8.98;;;1.35;;
16770;SDS011;8503;52.472;13.344;2023-02-01T09:01:03;11.60;;;1.80;;
16770;SDS011;8503;52.472;13.344;2023-02-01T09:02:28;4.03;;;1.27;;
16770;SDS011;8503;52.472;13.344;2023-02-01T09:03:52;2.35;;;1.17;;
16770;SDS011;8503;52.472;13.344;2023-02-01T09:05:15;5.20;;;1.67;;
16770;SDS011;8503;52.472;13.344;2023-02-01T09:06:43;2.47;;;1.17;;
16770;SDS011;8503;52.472;13.344;2023-02-01T09:08:07;4.05;;;1.63;;
16770;SDS011;8503;52.472;13.344;2023-02-01T09:09:30;4.10;;;1.15;;
16770;SDS011;8503;52.472;13.344;2023-02-01T09:10:57;6.70;;;1.38;;
16770;SDS011;8503;52.472;13.344;2023-02-01T09:12:23;2.47;;;1.70;;
16770;SDS011;8503;52.472;13.344;2023-02-01T09:13:47;5.05;;;1.83;;
16770;SDS011;8503;52.472;13.344;2023-02-01T09:15:11;6.88;;;2.08;;
16770;SDS011;8503;52.472;13.344;2023-02-01T09:16:34;4.40;;;1.80;;
16770;SDS011;8503;52.472;13.344;2023-02-01T09:17:59;4.28;;;1.63;;
16770;SDS011;8503;52.472;13.344;2023-02-01T09:19:23;4.68;;;1.60;;
16770;SDS011;8503;52.472;13.344;2023-02-01T09:20:47;2.97;;;1.13;;
16770;SDS011;8503;52.472;13.344;2023-02-01T09:22:11;6.80;;;1.55;;
16770;SDS011;8503;52.472;13.344;2023-02-01T09:23:34;5.03;;;1.30;;
16770;SDS011;8503;52.472;13.344;2023-02-01T09:24:58;1.60;;;0.82;;
16770;SDS011;8503;52.472;13.344;2023-02-01T09:26:21;5.15;;;1.02;;
16770;SDS011;8503;52.472;13.344;2023-02-01T09:27:53;1.63;;;1.00;;
16770;SDS011;8503;52.472;13.344;2023-02-01T09:29:16;2.45;;;0.85;;
16770;SDS011;8503;52.472;13.344;2023-02-01T09:30:40;2.88;;;1.23;;
16770;SDS011;8503;52.472;13.344;2023-02-01T09:32:03;5.35;;;1.10;;
16770;SDS011;8503;52.472;13.344;2023-02-01T09:33:29;4.28;;;0.88;;
16770;SDS011;8503;52.472;13.344;2023-02-01T09:34:52;1.67;;;0.63;;
16770;SDS011;8503;52.472;13.344;2023-02-01T09:36:16;6.85;;;1.00;;
16770;SDS011;8503;52.472;13.344;2023-02-01T09:37:41;2.50;;;0.80;;
16770;SDS011;8503;52.472;13.344;2023-02-01T09:39:05;1.88;;;0.70;;
16770;SDS011;8503;52.472;13.344;2023-02-01T09:40:29;6.20;;;0.70;;
16770;SDS011;8503;52.472;13.344;2023-02-01T09:41:55;4.47;;;0.88;;
16770;SDS011;8503;52.472;13.344;2023-02-01T09:43:26;1.23;;;0.73;;
16770;SDS011;8503;52.472;13.344;2023-02-01T09:45:06;1.65;;;0.80;;
16770;SDS011;8503;52.472;13.344;2023-02-01T09:46:36;3.67;;;1.13;;
16770;SDS011;8503;52.472;13.344;2023-02-01T09:48:02;3.13;;;1.10;;
16770;SDS011;8503;52.472;13.344;2023-02-01T09:49:32;2.83;;;0.65;;
16770;SDS011;8503;52.472;13.344;2023-02-01T09:50:59;2.70;;;0.95;;
16770;SDS011;8503;52.472;13.344;2023-02-01T09:52:30;4.43;;;0.70;;
16770;SDS011;8503;52.472;13.344;2023-02-01T09:53:58;1.65;;;0.75;;
16770;SDS011;8503;52.472;13.344;2023-02-01T09:55:25;0.30;;;0.30;;
16770;SDS011;8503;52.472;13.344;2023-02-01T09:56:54;6.07;;;0.80;;
16770;SDS011;8503;52.472;13.344;2023-02-01T09:58:22;1.67;;;0.85;;
16770;SDS011;8503;52.472;13.344;2023-02-01T09:59:49;2.95;;;0.73;;
16770;SDS011;8503;52.472;13.344;2023-02-01T10:01:20;1.85;;;0.60;;
16770;SDS011;8503;52.472;13.344;2023-02-01T10:02:44;2.20;;;0.60;;
16770;SDS011;8503;52.472;13.344;2023-02-01T10:04:08;0.35;;;0.35;;
16770;SDS011;8503;52.472;13.344;2023-02-01T10:05:42;2.03;;;0.50;;
16770;SDS011;8503;52.472;13.344;2023-02-01T10:07:31;3.95;;;0.88;;
16770;SDS011;8503;52.472;13.344;2023-02-01T10:09:06;3.20;;;0.60;;
16770;SDS011;8503;52.472;13.344;2023-02-01T10:10:38;5.18;;;0.88;;
16770;SDS011;8503;52.472;13.344;2023-02-01T10:14:20;4.55;;;0.93;;
16770;SDS011;8503;52.472;13.344;2023-02-01T10:16:11;4.18;;;0.88;;
16770;SDS011;8503;52.472;13.344;2023-02-01T10:17:44;5.40;;;0.82;;
16770;SDS011;8503;52.472;13.344;2023-02-01T10:19:17;5.53;;;2.63;;
16770;SDS011;8503;52.472;13.344;2023-02-01T10:20:56;1.85;;;0.65;;
16770;SDS011;8503;52.472;13.344;2023-02-01T10:22:26;4.03;;;1.10;;
16770;SDS011;8503;52.472;13.344;2023-02-01T10:24:28;2.13;;;1.00;;
16770;SDS011;8503;52.472;13.344;2023-02-01T10:26:04;1.77;;;0.52;;
16770;SDS011;8503;52.472;13.344;2023-02-01T10:27:33;3.50;;;0.95;;
16770;SDS011;8503;52.472;13.344;2023-02-01T10:28:58;2.75;;;0.93;;
16770;SDS011;8503;52.472;13.344;2023-02-01T10:30:25;3.95;;;0.70;;
16770;SDS011;8503;52.472;13.344;2023-02-01T10:31:54;3.35;;;0.98;;
16770;SDS011;8503;52.472;13.344;2023-02-01T10:33:21;4.65;;;1.23;;
16770;SDS011;8503;52.472;13.344;2023-02-01T10:34:48;4.00;;;1.00;;
16770;SDS011;8503;52.472;13.344;2023-02-01T10:36:17;1.88;;;0.82;;
16770;SDS011;8503;52.472;13.344;2023-02-01T10:37:44;1.63;;;0.70;;
16770;SDS011;8503;52.472;13.344;2023-02-01T10:39:09;2.85;;;0.80;;
16770;SDS011;8503;52.472;13.344;2023-02-01T10:40:33;2.20;;;1.13;;
16770;SDS011;8503;52.472;13.344;2023-02-01T10:41:56;7.28;;;1.15;;
16770;SDS011;8503;52.472;13.344;2023-02-01T10:43:20;6.68;;;1.30;;
16770;SDS011;8503;52.472;13.344;2023-02-01T10:44:44;3.95;;;0.77;;
16770;SDS011;8503;52.472;13.344;2023-02-01T10:46:09;3.13;;;1.05;;
16770;SDS011;8503;52.472;13.344;2023-02-01T10:47:33;3.17;;;1.23;;
16770;SDS011;8503;52.472;13.344;2023-02-01T10:48:56;2.83;;;1.02;;
16770;SDS011;8503;52.472;13.344;2023-02-01T10:50:25;5.72;;;2.08;;
16770;SDS011;8503;52.472;13.344;2023-02-01T10:51:59;4.72;;;1.50;;
16770;SDS011;8503;52.472;13.344;2023-02-01T10:53:29;3.40;;;1.33;;
16770;SDS011;8503;52.472;13.344;2023-02-01T10:54:57;6.07;;;2.20;;
16770;SDS011;8503;52.472;13.344;2023-02-01T10:56:53;3.50;;;1.63;;
16770;SDS011;8503;52.472;13.344;2023-02-01T10:58:17;5.00;;;1.33;;
16770;SDS011;8503;52.472;13.344;2023-02-01T10:59:41;8.07;;;1.42;;
16770;SDS011;8503;52.472;13.344;2023-02-01T11:01:06;1.98;;;0.95;;
16770;SDS011;8503;52.472;13.344;2023-02-01T11:02:33;3.08;;;0.65;;
16770;SDS011;8503;52.472;13.344;2023-02-01T11:03:58;6.85;;;1.05;;
16770;SDS011;8503;52.472;13.344;2023-02-01T11:05:23;4.18;;;0.82;;
16770;SDS011;8503;52.472;13.344;2023-02-01T11:06:48;3.65;;;0.90;;
16770;SDS011;8503;52.472;13.344;2023-02-01T11:08:14;6.53;;;1.45;;
16770;SDS011;8503;52.472;13.344;2023-02-01T11:09:39;2.05;;;1.10;;
16770;SDS011;8503;52.472;13.344;2023-02-01T11:11:04;3.20;;;1.00;;
16770;SDS011;8503;52.472;13.344;2023-02-01T11:12:35;2.88;;;1.45;;
16770;SDS011;8503;52.472;13.344;2023-02-01T11:14:00;4.43;;;1.55;;
16770;SDS011;8503;52.472;13.344;2023-02-01T11:15:38;6.10;;;1.70;;
16770;SDS011;8503;52.472;13.344;2023-02-01T11:17:17;8.55;;;2.20;;
16770;SDS011;8503;52.472;13.344;2023-02-01T11:18:46;10.38;;;4.65;;
16770;SDS011;8503;52.472;13.344;2023-02-01T11:20:17;6.65;;;1.65;;
16770;SDS011;8503;52.472;13.344;2023-02-01T11:21:42;7.93;;;1.67;;
16770;SDS011;8503;52.472;13.344;2023-02-01T11:23:10;7.93;;;1.75;;
16770;SDS011;8503;52.472;13.344;2023-02-01T11:24:37;3.45;;;1.05;;
16770;SDS011;8503;52.472;13.344;2023-02-01T11:26:01;9.45;;;1.83;;
16770;SDS011;8503;52.472;13.344;2023-02-01T11:27:30;13.30;;;3.00;;
16770;SDS011;8503;52.472;13.344;2023-02-01T11:29:04;5.32;;;1.73;;
16770;SDS011;8503;52.472;13.344;2023-02-01T11:30:33;5.53;;;1.23;;
16770;SDS011;8503;52.472;13.344;2023-02-01T11:31:59;8.68;;;1.60;;
16770;SDS011;8503;52.472;13.344;2023-02-01T11:33:24;7.45;;;1.33;;
16770;SDS011;8503;52.472;13.344;2023-02-01T11:34:52;4.93;;;1.15;;
16770;SDS011;8503;52.472;13.344;2023-02-01T11:36:17;4.45;;;1.40;;
16770;SDS011;8503;52.472;13.344;2023-02-01T11:37:42;7.05;;;2.38;;
16770;SDS011;8503;52.472;13.344;2023-02-01T11:40:48;5.45;;;1.52;;
16770;SDS011;8503;52.472;13.344;2023-02-01T11:42:14;7.45;;;2.13;;
16770;SDS011;8503;52.472;13.344;2023-02-01T11:43:38;8.63;;;2.97;;
16770;SDS011;8503;52.472;13.344;2023-02-01T11:45:18;11.48;;;1.40;;
16770;SDS011;8503;52.472;13.344;2023-02-01T11:46:42;7.43;;;2.40;;
16770;SDS011;8503;52.472;13.344;2023-02-01T11:48:08;9.57;;;1.77;;
16770;SDS011;8503;52.472;13.344;2023-02-01T11:49:38;8.85;;;1.80;;
16770;SDS011;8503;52.472;13.344;2023-02-01T11:51:08;6.10;;;2.28;;
16770;SDS011;8503;52.472;13.344;2023-02-01T11:52:49;9.68;;;2.20;;
16770;SDS011;8503;52.472;13.344;2023-02-01T11:56:14;5.05;;;1.30;;
16770;SDS011;8503;52.472;13.344;2023-02-01T11:57:49;12.95;;;2.10;;
16770;SDS011;8503;52.472;13.344;2023-02-01T11:59:24;4.55;;;1.38;;
16770;SDS011;8503;52.472;13.344;2023-02-01T12:01:01;9.90;;;1.40;;
16770;SDS011;8503;52.472;13.344;2023-02-01T12:02:42;7.18;;;1.50;;
16770;SDS011;8503;52.472;13.344;2023-02-01T12:06:31;6.03;;;1.40;;
16770;SDS011;8503;52.472;13.344;2023-02-01T12:08:06;4.53;;;1.60;;
16770;SDS011;8503;52.472;13.344;2023-02-01T12:09:42;8.40;;;1.63;;
16770;SDS011;8503;52.472;13.344;2023-02-01T12:11:19;6.35;;;1.80;;
16770;SDS011;8503;52.472;13.344;2023-02-01T12:12:54;7.53;;;1.63;;
16770;SDS011;8503;52.472;13.344;2023-02-01T12:14:36;4.95;;;1.98;;
16770;SDS011;8503;52.472;13.344;2023-02-01T12:16:09;8.10;;;1.15;;
16770;SDS011;8503;52.472;13.344;2023-02-01T12:17:47;8.77;;;1.83;;
16770;SDS011;8503;52.472;13.344;2023-02-01T12:19:37;4.93;;;1.40;;
16770;SDS011;8503;52.472;13.344;2023-02-01T12:21:15;6.95;;;1.50;;